sensor_id;sensor_type;location;lat;lon;timestamp;pressure;altitude;pressure_sealevel;temperature;humidity
76973;BME280;65907;53.640;10.050;2023-08-20T00:01:27;101477.59;;;27.01;52.18
76973;BME280;65907;53.640;10.050;2023-08-20T00:03:55;101480.91;;;27.03;52.17
76973;BME280;65907;53.640;10.050;2023-08-20T00:06:21;101481.59;;;27.05;52.13
76973;BME280;65907;53.640;10.050;2023-08-20T00:08:46;101483.94;;;27.08;51.91
76973;BME280;65907;53.640;10.050;2023-08-20T00:11:12;101481.47;;;27.07;52.01
76973;BME280;65907;53.640;10.050;2023-08-20T00:13:40;101485.22;;;27.04;51.89
76973;BME280;65907;53.640;10.050;2023-08-20T00:16:06;101492.00;;;27.07;51.79
76973;BME280;65907;53.640;10.050;2023-08-20T00:18:31;101497.00;;;27.10;51.92
76973;BME280;65907;53.640;10.050;2023-08-20T00:20:57;101496.44;;;27.06;52.04
76973;BME280;65907;53.640;10.050;2023-08-20T00:23:23;101498.41;;;27.04;51.91
76973;BME280;65907;53.640;10.050;2023-08-20T00:25:48;101507.31;;;27.03;52.12
76973;BME280;65907;53.640;10.050;2023-08-20T00:28:13;101509.81;;;27.04;52.24
76973;BME280;65907;53.640;10.050;2023-08-20T00:30:39;101510.31;;;27.08;51.97
76973;BME280;65907;53.640;10.050;2023-08-20T00:33:06;101510.94;;;27.02;52.10
76973;BME280;65907;53.640;10.050;2023-08-20T00:35:31;101513.03;;;26.98;52.03
76973;BME280;65907;53.640;10.050;2023-08-20T00:37:56;101509.13;;;27.02;51.87
76973;BME280;65907;53.640;10.050;2023-08-20T00:40:24;101514.13;;;27.05;52.06
76973;BME280;65907;53.640;10.050;2023-08-20T00:42:49;101517.56;;;27.06;51.97
76973;BME280;65907;53.640;10.050;2023-08-20T00:45:15;101522.34;;;27.02;52.14
76973;BME280;65907;53.640;10.050;2023-08-20T00:47:41;101524.97;;;27.02;52.10
76973;BME280;65907;53.640;10.050;2023-08-20T00:50:07;101530.25;;;27.02;52.06
76973;BME280;65907;53.640;10.050;2023-08-20T00:52:33;101527.31;;;27.05;51.94
76973;BME280;65907;53.640;10.050;2023-08-20T00:54:58;101528.13;;;27.06;51.82
76973;BME280;65907;53.640;10.050;2023-08-20T00:57:24;101528.44;;;27.03;51.81
76973;BME280;65907;53.640;10.050;2023-08-20T00:59:50;101520.69;;;27.01;52.08
76973;BME280;65907;53.640;10.050;2023-08-20T01:02:15;101527.91;;;26.99;52.10
76973;BME280;65907;53.640;10.050;2023-08-20T01:04:41;101526.63;;;27.03;51.88
76973;BME280;65907;53.640;10.050;2023-08-20T01:12:08;101527.53;;;27.12;51.68
76973;BME280;65907;53.640;10.050;2023-08-20T01:14:35;101523.31;;;27.01;51.84
76973;BME280;65907;53.640;10.050;2023-08-20T01:17:00;101528.06;;;26.98;52.09
76973;BME280;65907;53.640;10.050;2023-08-20T01:19:25;101523.88;;;26.95;51.96
76973;BME280;65907;53.640;10.050;2023-08-20T01:29:43;101519.28;;;26.97;51.78
76973;BME280;65907;53.640;10.050;2023-08-20T01:32:10;101522.09;;;26.96;51.85
76973;BME280;65907;53.640;10.050;2023-08-20T01:34:36;101521.94;;;26.97;51.82
76973;BME280;65907;53.640;10.050;2023-08-20T01:37:02;101518.59;;;26.95;52.17
76973;BME280;65907;53.640;10.050;2023-08-20T01:39:27;101519.44;;;26.96;51.98
76973;BME280;65907;53.640;10.050;2023-08-20T01:41:52;101522.91;;;26.96;52.00
76973;BME280;65907;53.640;10.050;2023-08-20T01:44:18;101518.16;;;27.00;51.79
76973;BME280;65907;53.640;10.050;2023-08-20T01:46:43;101517.56;;;27.06;51.67
76973;BME280;65907;53.640;10.050;2023-08-20T01:49:08;101509.44;;;26.99;51.82
76973;BME280;65907;53.640;10.050;2023-08-20T01:51:33;101516.38;;;27.00;51.44
76973;BME280;65907;53.640;10.050;2023-08-20T01:53:58;101519.28;;;26.97;51.78
76973;BME280;65907;53.640;10.050;2023-08-20T01:56:24;101524.97;;;27.02;51.47
76973;BME280;65907;53.640;10.050;2023-08-20T01:58:49;101517.50;;;26.98;51.72
76973;BME280;65907;53.640;10.050;2023-08-20T02:01:14;101521.25;;;26.95;51.91
76973;BME280;65907;53.640;10.050;2023-08-20T02:03:39;101524.44;;;26.99;51.73
76973;BME280;65907;53.640;10.050;2023-08-20T02:06:05;101517.72;;;27.04;51.56
76973;BME280;65907;53.640;10.050;2023-08-20T02:08:30;101519.00;;;27.00;51.64
76973;BME280;65907;53.640;10.050;2023-08-20T02:11:04;101515.84;;;26.97;51.69
76973;BME280;65907;53.640;10.050;2023-08-20T02:13:30;101519.00;;;27.00;51.52
76973;BME280;65907;53.640;10.050;2023-08-20T02:15:59;101516.66;;;26.97;51.61
76973;BME280;65907;53.640;10.050;2023-08-20T02:18:24;101523.44;;;27.00;51.68
76973;BME280;65907;53.640;10.050;2023-08-20T02:20:52;101519.69;;;27.02;51.50
76973;BME280;65907;53.640;10.050;2023-08-20T02:23:17;101522.16;;;27.04;51.56
76973;BME280;65907;53.640;10.050;2023-08-20T02:25:43;101522.47;;;27.01;51.63
76973;BME280;65907;53.640;10.050;2023-08-20T02:28:08;101526.94;;;27.00;51.56
76973;BME280;65907;53.640;10.050;2023-08-20T02:30:43;101528.19;;;26.96;51.63
76973;BME280;65907;53.640;10.050;2023-08-20T02:33:09;101521.66;;;27.00;51.67
76973;BME280;65907;53.640;10.050;2023-08-20T02:35:35;101524.97;;;27.02;51.32
76973;BME280;65907;53.640;10.050;2023-08-20T02:38:00;101532.22;;;27.00;51.30
76973;BME280;65907;53.640;10.050;2023-08-20T02:40:25;101527.91;;;26.99;51.41
76973;BME280;65907;53.640;10.050;2023-08-20T02:42:51;101525.09;;;27.01;51.55
76973;BME280;65907;53.640;10.050;2023-08-20T02:45:18;101520.69;;;27.01;51.63
76973;BME280;65907;53.640;10.050;2023-08-20T02:47:46;101530.25;;;27.02;51.49
76973;BME280;65907;53.640;10.050;2023-08-20T02:50:11;101530.94;;;27.04;51.26
76973;BME280;65907;53.640;10.050;2023-08-20T02:52:40;101530.25;;;27.02;51.41
76973;BME280;65907;53.640;10.050;2023-08-20T02:55:05;101531.59;;;27.07;51.30
76973;BME280;65907;53.640;10.050;2023-08-20T02:57:31;101535.91;;;27.08;51.15
76973;BME280;65907;53.640;10.050;2023-08-20T02:59:56;101532.41;;;27.07;51.47
76973;BME280;65907;53.640;10.050;2023-08-20T03:02:21;101534.25;;;27.07;51.32
76973;BME280;65907;53.640;10.050;2023-08-20T03:04:47;101535.22;;;27.05;51.34
76973;BME280;65907;53.640;10.050;2023-08-20T03:07:12;101533.25;;;27.08;51.17
76973;BME280;65907;53.640;10.050;2023-08-20T03:09:37;101533.41;;;27.06;51.26
76973;BME280;65907;53.640;10.050;2023-08-20T03:12:03;101538.53;;;27.08;51.12
76973;BME280;65907;53.640;10.050;2023-08-20T03:14:28;101533.25;;;27.08;51.15
76973;BME280;65907;53.640;10.050;2023-08-20T03:16:56;101535.91;;;27.08;51.15
76973;BME280;65907;53.640;10.050;2023-08-20T03:19:21;101538.53;;;27.08;51.13
76973;BME280;65907;53.640;10.050;2023-08-20T03:21:46;101528.13;;;27.06;51.24
76973;BME280;65907;53.640;10.050;2023-08-20T03:24:11;101533.94;;;27.10;50.96
76973;BME280;65907;53.640;10.050;2023-08-20T03:26:39;101527.13;;;27.07;51.31
76973;BME280;65907;53.640;10.050;2023-08-20T03:29:04;101533.25;;;27.08;51.06
76973;BME280;65907;53.640;10.050;2023-08-20T03:31:29;101534.09;;;27.08;51.31
76973;BME280;65907;53.640;10.050;2023-08-20T03:33:55;101536.88;;;27.07;51.41
76973;BME280;65907;53.640;10.050;2023-08-20T03:36:20;101533.56;;;27.04;51.32
76973;BME280;65907;53.640;10.050;2023-08-20T03:38:45;101538.84;;;27.04;51.17
76973;BME280;65907;53.640;10.050;2023-08-20T03:41:10;101545.78;;;27.05;51.33
76973;BME280;65907;53.640;10.050;2023-08-20T03:43:36;101533.25;;;27.08;51.23
76973;BME280;65907;53.640;10.050;2023-08-20T03:46:01;101529.78;;;27.07;50.88
76973;BME280;65907;53.640;10.050;2023-08-20T03:48:27;101535.91;;;27.08;51.28
76973;BME280;65907;53.640;10.050;2023-08-20T03:50:52;101540.50;;;27.05;51.18
76973;BME280;65907;53.640;10.050;2023-08-20T03:53:17;101543.97;;;27.06;51.18
76973;BME280;65907;53.640;10.050;2023-08-20T03:55:47;101553.53;;;27.07;51.01
76973;BME280;65907;53.640;10.050;2023-08-20T03:58:12;101546.78;;;27.04;51.30
76973;BME280;65907;53.640;10.050;2023-08-20T04:00:37;101562.44;;;27.06;51.24
76973;BME280;65907;53.640;10.050;2023-08-20T04:03:02;101559.97;;;27.04;51.30
76973;BME280;65907;53.640;10.050;2023-08-20T04:05:28;101560.66;;;27.07;51.16
76973;BME280;65907;53.640;10.050;2023-08-20T04:07:55;101563.59;;;27.03;51.04
76973;BME280;65907;53.640;10.050;2023-08-20T04:10:20;101574.66;;;27.07;51.23
76973;BME280;65907;53.640;10.050;2023-08-20T04:12:46;101582.06;;;27.03;51.00
76973;BME280;65907;53.640;10.050;2023-08-20T04:15:11;101579.13;;;27.07;51.03
76973;BME280;65907;53.640;10.050;2023-08-20T04:17:36;101583.56;;;27.06;51.28
76973;BME280;65907;53.640;10.050;2023-08-20T04:20:01;101588.03;;;27.05;51.10
76973;BME280;65907;53.640;10.050;2023-08-20T04:22:28;101583.72;;;27.04;50.96
76973;BME280;65907;53.640;10.050;2023-08-20T04:24:56;101578.28;;;27.06;51.15
76973;BME280;65907;53.640;10.050;2023-08-20T04:27:21;101580.78;;;27.08;50.96
76973;BME280;65907;53.640;10.050;2023-08-20T04:29:46;101582.56;;;27.07;50.78
76973;BME280;65907;53.640;10.050;2023-08-20T04:32:12;101582.75;;;27.05;51.09
76973;BME280;65907;53.640;10.050;2023-08-20T04:34:37;101585.38;;;27.05;51.05
76973;BME280;65907;53.640;10.050;2023-08-20T04:37:02;101587.34;;;27.03;51.15
76973;BME280;65907;53.640;10.050;2023-08-20T04:39:27;101587.03;;;27.07;50.90
76973;BME280;65907;53.640;10.050;2023-08-20T04:41:52;101586.19;;;27.06;50.99
76973;BME280;65907;53.640;10.050;2023-08-20T04:44:18;101583.56;;;27.06;51.05
76973;BME280;65907;53.640;10.050;2023-08-20T04:46:43;101585.22;;;27.07;51.03
76973;BME280;65907;53.640;10.050;2023-08-20T04:49:08;101583.72;;;27.04;51.13
76973;BME280;65907;53.640;10.050;2023-08-20T04:51:33;101592.63;;;27.03;51.05
76973;BME280;65907;53.640;10.050;2023-08-20T04:53:59;101595.09;;;27.05;50.93
76973;BME280;65907;53.640;10.050;2023-08-20T04:56:24;101602.72;;;27.08;50.77
76973;BME280;65907;53.640;10.050;2023-08-20T04:58:49;101609.13;;;27.05;51.01
76973;BME280;65907;53.640;10.050;2023-08-20T05:01:14;101610.78;;;27.07;51.10
76973;BME280;65907;53.640;10.050;2023-08-20T05:03:45;101610.78;;;27.07;50.93
76973;BME280;65907;53.640;10.050;2023-08-20T05:06:10;101608.00;;;27.08;50.85
76973;BME280;65907;53.640;10.050;2023-08-20T05:08:35;101604.66;;;27.06;50.93
76973;BME280;65907;53.640;10.050;2023-08-20T05:11:01;101612.44;;;27.08;50.91
76973;BME280;65907;53.640;10.050;2023-08-20T05:13:26;101611.47;;;27.09;50.88
76973;BME280;65907;53.640;10.050;2023-08-20T05:15:51;101616.47;;;27.12;50.96
76973;BME280;65907;53.640;10.050;2023-08-20T05:18:16;101613.00;;;27.11;50.81
76973;BME280;65907;53.640;10.050;2023-08-20T05:20:42;101616.31;;;27.13;50.68
76973;BME280;65907;53.640;10.050;2023-08-20T05:23:07;101622.41;;;27.14;50.52
76973;BME280;65907;53.640;10.050;2023-08-20T05:25:32;101617.97;;;27.14;50.69
76973;BME280;65907;53.640;10.050;2023-08-20T05:28:00;101608.22;;;27.15;50.67
76973;BME280;65907;53.640;10.050;2023-08-20T05:30:26;101610.75;;;27.16;50.68
76973;BME280;65907;53.640;10.050;2023-08-20T05:32:51;101620.75;;;27.13;50.72
76973;BME280;65907;53.640;10.050;2023-08-20T05:35:19;101614.34;;;27.15;50.68
76973;BME280;65907;53.640;10.050;2023-08-20T05:37:44;101609.09;;;27.15;50.68
76973;BME280;65907;53.640;10.050;2023-08-20T05:40:12;101600.50;;;27.31;50.20
76973;BME280;65907;53.640;10.050;2023-08-20T05:42:39;101598.16;;;27.46;49.85
76973;BME280;65907;53.640;10.050;2023-08-20T05:45:04;101595.38;;;27.48;49.77
76973;BME280;65907;53.640;10.050;2023-08-20T05:47:30;101581.28;;;27.57;49.34
76973;BME280;65907;53.640;10.050;2023-08-20T05:49:55;101583.75;;;27.77;49.07
76973;BME280;65907;53.640;10.050;2023-08-20T05:52:20;101573.41;;;27.84;48.75
76973;BME280;65907;53.640;10.050;2023-08-20T05:54:45;101578.34;;;28.05;48.43
76973;BME280;65907;53.640;10.050;2023-08-20T05:57:11;101581.66;;;27.62;49.41
76973;BME280;65907;53.640;10.050;2023-08-20T05:59:36;101588.00;;;27.52;49.42
76973;BME280;65907;53.640;10.050;2023-08-20T06:02:01;101575.00;;;27.40;49.86
76973;BME280;65907;53.640;10.050;2023-08-20T06:04:26;101580.28;;;27.40;49.99
76973;BME280;65907;53.640;10.050;2023-08-20T06:06:52;101577.41;;;27.33;49.98
76973;BME280;65907;53.640;10.050;2023-08-20T06:09:17;101570.28;;;27.62;49.44
76973;BME280;65907;53.640;10.050;2023-08-20T06:11:42;101577.53;;;27.86;49.00
76973;BME280;65907;53.640;10.050;2023-08-20T06:14:07;101574.19;;;27.76;49.42
76973;BME280;65907;53.640;10.050;2023-08-20T06:16:33;101566.78;;;29.10;46.06
76973;BME280;65907;53.640;10.050;2023-08-20T06:18:58;101568.47;;;30.67;42.71
76973;BME280;65907;53.640;10.050;2023-08-20T06:21:23;101561.28;;;31.08;41.08
76973;BME280;65907;53.640;10.050;2023-08-20T06:23:48;101575.94;;;29.49;44.69
76973;BME280;65907;53.640;10.050;2023-08-20T06:26:13;101584.97;;;28.62;46.75
76973;BME280;65907;53.640;10.050;2023-08-20T06:28:39;101580.00;;;28.06;48.40
76973;BME280;65907;53.640;10.050;2023-08-20T06:31:04;101575.00;;;27.76;49.00
76973;BME280;65907;53.640;10.050;2023-08-20T06:33:29;101580.97;;;27.60;49.31
76973;BME280;65907;53.640;10.050;2023-08-20T06:35:55;101594.63;;;27.56;49.39
76973;BME280;65907;53.640;10.050;2023-08-20T06:38:20;101592.16;;;27.54;49.65
76973;BME280;65907;53.640;10.050;2023-08-20T06:40:48;101591.03;;;27.75;49.29
76973;BME280;65907;53.640;10.050;2023-08-20T06:43:13;101595.00;;;27.79;49.20
76973;BME280;65907;53.640;10.050;2023-08-20T06:45:41;101590.84;;;27.76;49.44
76973;BME280;65907;53.640;10.050;2023-08-20T06:48:07;101582.16;;;27.84;49.35
76973;BME280;65907;53.640;10.050;2023-08-20T06:50:34;101592.09;;;27.90;48.88
76973;BME280;65907;53.640;10.050;2023-08-20T06:52:59;101597.13;;;27.94;48.96
76973;BME280;65907;53.640;10.050;2023-08-20T06:55:25;101603.38;;;27.93;49.05
76973;BME280;65907;53.640;10.050;2023-08-20T06:57:50;101602.09;;;27.97;49.13
76973;BME280;65907;53.640;10.050;2023-08-20T07:00:15;101607.06;;;28.00;49.06
76973;BME280;65907;53.640;10.050;2023-08-20T07:02:41;101600.78;;;28.01;48.89
76973;BME280;65907;53.640;10.050;2023-08-20T07:05:06;101602.44;;;28.02;48.98
76973;BME280;65907;53.640;10.050;2023-08-20T07:07:34;101607.41;;;28.05;48.87
76973;BME280;65907;53.640;10.050;2023-08-20T07:09:59;101609.53;;;28.01;49.44
76973;BME280;65907;53.640;10.050;2023-08-20T07:12:24;101610.59;;;28.09;49.06
76973;BME280;65907;53.640;10.050;2023-08-20T07:14:49;101606.38;;;27.98;49.08
76973;BME280;65907;53.640;10.050;2023-08-20T07:17:15;101603.44;;;28.01;49.18
76973;BME280;65907;53.640;10.050;2023-08-20T07:19:40;101601.16;;;27.15;46.93
76973;BME280;65907;53.640;10.050;2023-08-20T07:22:05;101598.03;;;26.64;47.29
76973;BME280;65907;53.640;10.050;2023-08-20T07:24:30;101604.41;;;26.24;48.63
76973;BME280;65907;53.640;10.050;2023-08-20T07:26:59;101613.84;;;25.57;50.65
76973;BME280;65907;53.640;10.050;2023-08-20T07:29:26;101619.00;;;25.59;48.97
76973;BME280;65907;53.640;10.050;2023-08-20T07:31:51;101612.84;;;25.48;50.91
76973;BME280;65907;53.640;10.050;2023-08-20T07:34:16;101604.97;;;26.17;48.83
76973;BME280;65907;53.640;10.050;2023-08-20T07:36:42;101611.38;;;25.75;49.88
76973;BME280;65907;53.640;10.050;2023-08-20T07:39:07;101600.97;;;25.94;49.95
76973;BME280;65907;53.640;10.050;2023-08-20T07:41:36;101604.72;;;25.61;50.30
76973;BME280;65907;53.640;10.050;2023-08-20T07:44:01;101600.69;;;25.67;49.16
76973;BME280;65907;53.640;10.050;2023-08-20T07:46:28;101598.22;;;25.66;50.00
76973;BME280;65907;53.640;10.050;2023-08-20T07:48:53;101598.88;;;25.97;49.25
76973;BME280;65907;53.640;10.050;2023-08-20T07:51:19;101600.66;;;25.47;50.16
76973;BME280;65907;53.640;10.050;2023-08-20T07:53:44;101609.97;;;25.91;49.61
76973;BME280;65907;53.640;10.050;2023-08-20T07:56:12;101608.97;;;26.12;48.72
76973;BME280;65907;53.640;10.050;2023-08-20T07:58:37;101609.97;;;25.81;50.44
76973;BME280;65907;53.640;10.050;2023-08-20T08:01:03;101607.78;;;25.76;50.21
76973;BME280;65907;53.640;10.050;2023-08-20T08:03:29;101616.88;;;25.43;50.44
76973;BME280;65907;53.640;10.050;2023-08-20T08:05:54;101610.34;;;26.06;48.86
76973;BME280;65907;53.640;10.050;2023-08-20T08:08:19;101605.13;;;25.86;50.29
76973;BME280;65907;53.640;10.050;2023-08-20T08:10:45;101613.56;;;26.00;50.20
76973;BME280;65907;53.640;10.050;2023-08-20T08:13:13;101610.25;;;26.17;49.96
76973;BME280;65907;53.640;10.050;2023-08-20T08:15:39;101614.94;;;26.24;49.85
76973;BME280;65907;53.640;10.050;2023-08-20T08:18:05;101612.50;;;26.98;47.99
76973;BME280;65907;53.640;10.050;2023-08-20T08:20:30;101609.09;;;27.15;47.65
76973;BME280;65907;53.640;10.050;2023-08-20T08:22:55;101602.59;;;27.28;47.60
76973;BME280;65907;53.640;10.050;2023-08-20T08:25:21;101605.09;;;27.47;46.99
76973;BME280;65907;53.640;10.050;2023-08-20T08:27:47;101611.97;;;27.40;47.44
76973;BME280;65907;53.640;10.050;2023-08-20T08:30:13;101616.00;;;27.62;47.02
76973;BME280;65907;53.640;10.050;2023-08-20T08:32:39;101610.28;;;27.67;46.99
76973;BME280;65907;53.640;10.050;2023-08-20T08:35:04;101609.53;;;27.57;47.38
76973;BME280;65907;53.640;10.050;2023-08-20T08:37:30;101609.97;;;27.52;47.52
76973;BME280;65907;53.640;10.050;2023-08-20T08:39:55;101618.19;;;27.67;47.80
76973;BME280;65907;53.640;10.050;2023-08-20T08:42:22;101608.31;;;27.69;47.53
76973;BME280;65907;53.640;10.050;2023-08-20T08:44:49;101610.69;;;27.44;48.30
76973;BME280;65907;53.640;10.050;2023-08-20T08:47:15;101606.50;;;27.52;47.99
76973;BME280;65907;53.640;10.050;2023-08-20T08:49:40;101614.03;;;27.65;47.91
76973;BME280;65907;53.640;10.050;2023-08-20T08:52:08;101609.50;;;27.75;47.81
76973;BME280;65907;53.640;10.050;2023-08-20T08:54:35;101614.19;;;27.63;48.40
76973;BME280;65907;53.640;10.050;2023-08-20T08:57:01;101610.03;;;27.79;48.26
76973;BME280;65907;53.640;10.050;2023-08-20T08:59:26;101615.78;;;27.74;48.36
76973;BME280;65907;53.640;10.050;2023-08-20T09:01:51;101618.88;;;27.69;48.35
76973;BME280;65907;53.640;10.050;2023-08-20T09:04:16;101620.69;;;27.69;48.54
76973;BME280;65907;53.640;10.050;2023-08-20T09:06:49;101618.44;;;27.28;49.92
76973;BME280;65907;53.640;10.050;2023-08-20T09:09:16;101612.97;;;27.39;49.08
76973;BME280;65907;53.640;10.050;2023-08-20T09:11:43;101615.53;;;27.49;49.16
76973;BME280;65907;53.640;10.050;2023-08-20T09:14:24;101617.34;;;27.67;48.50
76973;BME280;65907;53.640;10.050;2023-08-20T09:16:59;101618.94;;;27.59;48.65
76973;BME280;65907;53.640;10.050;2023-08-20T09:19:27;101617.97;;;27.60;48.69
76973;BME280;65907;53.640;10.050;2023-08-20T09:21:55;101617.53;;;27.65;48.48
76973;BME280;65907;53.640;10.050;2023-08-20T09:24:33;101610.22;;;27.59;48.56
76973;BME280;65907;53.640;10.050;2023-08-20T09:26:59;101611.03;;;27.59;48.50
76973;BME280;65907;53.640;10.050;2023-08-20T09:29:25;101607.19;;;27.72;48.51
76973;BME280;65907;53.640;10.050;2023-08-20T09:31:50;101607.94;;;27.64;48.67
76973;BME280;65907;53.640;10.050;2023-08-20T09:34:25;101607.69;;;27.57;48.70
76973;BME280;65907;53.640;10.050;2023-08-20T09:36:51;101604.38;;;27.55;48.93
76973;BME280;65907;53.640;10.050;2023-08-20T09:39:16;101602.41;;;27.57;48.77
76973;BME280;65907;53.640;10.050;2023-08-20T09:41:42;101592.31;;;27.71;48.47
76973;BME280;65907;53.640;10.050;2023-08-20T09:44:09;101598.19;;;27.65;48.78
76973;BME280;65907;53.640;10.050;2023-08-20T09:46:34;101594.78;;;27.72;48.18
76973;BME280;65907;53.640;10.050;2023-08-20T09:49:00;101597.59;;;27.71;48.22
76973;BME280;65907;53.640;10.050;2023-08-20T09:51:26;101593.97;;;27.72;48.29
76973;BME280;65907;53.640;10.050;2023-08-20T09:54:03;101595.81;;;27.25;50.05
76973;BME280;65907;53.640;10.050;2023-08-20T09:56:34;101596.75;;;27.34;49.29
76973;BME280;65907;53.640;10.050;2023-08-20T09:59:01;101594.13;;;27.52;49.08
76973;BME280;65907;53.640;10.050;2023-08-20T10:01:27;101594.34;;;27.59;48.90
76973;BME280;65907;53.640;10.050;2023-08-20T10:03:53;101595.63;;;27.55;48.92
76973;BME280;65907;53.640;10.050;2023-08-20T10:06:18;101591.41;;;27.62;48.70
76973;BME280;65907;53.640;10.050;2023-08-20T10:08:43;101580.47;;;27.57;48.42
76973;BME280;65907;53.640;10.050;2023-08-20T10:11:10;101586.25;;;27.60;48.81
76973;BME280;65907;53.640;10.050;2023-08-20T10:13:36;101586.19;;;27.70;48.45
76973;BME280;65907;53.640;10.050;2023-08-20T10:16:01;101582.88;;;27.68;48.49
76973;BME280;65907;53.640;10.050;2023-08-20T10:18:27;101584.47;;;27.61;48.59
76973;BME280;65907;53.640;10.050;2023-08-20T10:20:55;101585.13;;;27.63;48.40
76973;BME280;65907;53.640;10.050;2023-08-20T10:23:21;101578.50;;;27.59;48.59
76973;BME280;65907;53.640;10.050;2023-08-20T10:25:50;101575.56;;;27.62;48.66
76973;BME280;65907;53.640;10.050;2023-08-20T10:31:06;101573.94;;;27.69;48.36
76973;BME280;65907;53.640;10.050;2023-08-20T10:33:35;101590.06;;;27.58;48.81
76973;BME280;65907;53.640;10.050;2023-08-20T10:39:00;101581.81;;;27.61;48.61
76973;BME280;65907;53.640;10.050;2023-08-20T10:41:28;101581.81;;;27.61;48.84
76973;BME280;65907;53.640;10.050;2023-08-20T10:43:57;101592.09;;;27.64;48.42
76973;BME280;65907;53.640;10.050;2023-08-20T10:46:23;101593.47;;;27.22;49.64
76973;BME280;65907;53.640;10.050;2023-08-20T10:48:52;101591.34;;;27.44;48.98
76973;BME280;65907;53.640;10.050;2023-08-20T10:51:19;101589.28;;;27.66;48.48
76973;BME280;65907;53.640;10.050;2023-08-20T10:53:49;101590.56;;;27.61;48.57
76973;BME280;65907;53.640;10.050;2023-08-20T10:59:08;101593.72;;;27.47;49.27
76973;BME280;65907;53.640;10.050;2023-08-20T11:01:36;101591.22;;;27.45;49.34
76973;BME280;65907;53.640;10.050;2023-08-20T11:04:02;101593.31;;;27.42;49.60
76973;BME280;65907;53.640;10.050;2023-08-20T11:06:32;101591.34;;;27.44;49.68
76973;BME280;65907;53.640;10.050;2023-08-20T11:08:57;101594.19;;;27.60;49.58
76973;BME280;65907;53.640;10.050;2023-08-20T11:11:23;101596.69;;;27.62;49.87
76973;BME280;65907;53.640;10.050;2023-08-20T11:13:48;101595.63;;;27.55;49.81
76973;BME280;65907;53.640;10.050;2023-08-20T11:16:13;101592.47;;;27.51;49.92
76973;BME280;65907;53.640;10.050;2023-08-20T11:18:38;101596.47;;;27.55;49.96
76973;BME280;65907;53.640;10.050;2023-08-20T11:21:07;101596.00;;;27.78;49.57
76973;BME280;65907;53.640;10.050;2023-08-20T11:23:32;101585.06;;;27.73;49.58
76973;BME280;65907;53.640;10.050;2023-08-20T11:25:58;101582.50;;;27.63;49.69
76973;BME280;65907;53.640;10.050;2023-08-20T11:28:24;101573.41;;;27.66;49.97
76973;BME280;65907;53.640;10.050;2023-08-20T11:30:49;101586.81;;;27.64;50.07
76973;BME280;65907;53.640;10.050;2023-08-20T11:33:15;101580.00;;;27.61;50.25
76973;BME280;65907;53.640;10.050;2023-08-20T11:35:41;101581.25;;;27.39;50.88
76973;BME280;65907;53.640;10.050;2023-08-20T11:38:06;101581.75;;;27.71;49.95
76973;BME280;65907;53.640;10.050;2023-08-20T11:40:31;101585.72;;;27.75;50.28
76973;BME280;65907;53.640;10.050;2023-08-20T11:42:59;101583.41;;;27.72;50.12
76973;BME280;65907;53.640;10.050;2023-08-20T11:45:24;101586.34;;;27.69;50.39
76973;BME280;65907;53.640;10.050;2023-08-20T11:47:49;101583.09;;;27.75;49.82
76973;BME280;65907;53.640;10.050;2023-08-20T11:50:20;101577.63;;;27.76;49.78
76973;BME280;65907;53.640;10.050;2023-08-20T11:52:45;101585.56;;;27.76;49.88
76973;BME280;65907;53.640;10.050;2023-08-20T11:55:10;101583.59;;;27.79;49.67
76973;BME280;65907;53.640;10.050;2023-08-20T11:57:36;101576.38;;;27.62;50.06
76973;BME280;65907;53.640;10.050;2023-08-20T12:00:03;101572.06;;;27.61;50.10
76973;BME280;65907;53.640;10.050;2023-08-20T12:02:29;101579.00;;;27.62;50.33
76973;BME280;65907;53.640;10.050;2023-08-20T12:04:55;101575.91;;;27.67;50.06
76973;BME280;65907;53.640;10.050;2023-08-20T12:07:20;101576.50;;;27.79;49.56
76973;BME280;65907;53.640;10.050;2023-08-20T12:09:49;101572.84;;;27.72;49.76
76973;BME280;65907;53.640;10.050;2023-08-20T12:12:15;101571.97;;;27.71;49.84
76973;BME280;65907;53.640;10.050;2023-08-20T12:14:44;101570.94;;;27.64;50.09
76973;BME280;65907;53.640;10.050;2023-08-20T12:17:09;101572.16;;;27.70;49.76
76973;BME280;65907;53.640;10.050;2023-08-20T12:19:34;101572.28;;;27.68;50.01
76973;BME280;65907;53.640;10.050;2023-08-20T12:22:00;101575.25;;;27.65;49.91
76973;BME280;65907;53.640;10.050;2023-08-20T12:24:25;101575.06;;;27.67;50.03
76973;BME280;65907;53.640;10.050;2023-08-20T12:26:53;101573.28;;;27.67;49.78
76973;BME280;65907;53.640;10.050;2023-08-20T12:29:18;101567.69;;;27.70;49.85
76973;BME280;65907;53.640;10.050;2023-08-20T12:31:43;101562.41;;;27.70;49.96
76973;BME280;65907;53.640;10.050;2023-08-20T12:34:09;101560.88;;;27.68;49.83
76973;BME280;65907;53.640;10.050;2023-08-20T12:36:34;101567.06;;;27.76;49.71
76973;BME280;65907;53.640;10.050;2023-08-20T12:39:02;101562.25;;;27.72;49.89
76973;BME280;65907;53.640;10.050;2023-08-20T12:41:29;101558.94;;;27.70;49.96
76973;BME280;65907;53.640;10.050;2023-08-20T12:43:54;101555.78;;;27.66;49.85
76973;BME280;65907;53.640;10.050;2023-08-20T12:46:19;101553.75;;;27.60;49.94
76973;BME280;65907;53.640;10.050;2023-08-20T12:48:45;101553.03;;;27.76;49.67
76973;BME280;65907;53.640;10.050;2023-08-20T12:51:11;101555.81;;;27.74;49.82
76973;BME280;65907;53.640;10.050;2023-08-20T12:53:38;101555.50;;;27.77;49.55
76973;BME280;65907;53.640;10.050;2023-08-20T12:56:04;101541.72;;;27.47;50.23